Time;durP1;ratioP1;P1;durP2;ratioP2;P2;SDS_P1;SDS_P2;PMS_P1;PMS_P2;Temp;Humidity;BMP_temperature;BMP_pressure;BME280_temperature;BME280_humidity;BME280_pressure;Samples;Min_cycle;Max_cycle;Signal;HPM_P1;HPM_P2
2023/10/05 00:01:03;;;;;;;;;;;;;;;12.36;98.83;102269.78;5053237;28;19913;-51
2023/10/05 00:03:30;;;;;;;;;;;;;;;12.35;99.13;102270.72;5054135;28;19913;-52
2023/10/05 00:06:03;;;;;;;;;;;;;;;12.35;99.19;102275.22;5050640;28;19971;-53
2023/10/05 00:08:28;;;;;;;;;;;;;;;12.35;99.18;102272.53;5053572;28;20251;-54
2023/10/05 00:10:54;;;;;;;;;;;;;;;12.35;99.01;102275.22;5053642;28;19923;-51
2023/10/05 00:13:19;;;;;;;;;;;;;;;12.34;98.97;102265.50;5053055;28;19913;-50
2023/10/05 00:15:45;;;;;;;;;;;;;;;12.32;99.67;102278.94;5052624;28;19927;-50
2023/10/05 00:18:14;;;;;;;;;;;;;;;12.33;99.69;102287.78;5053281;28;19960;-50
2023/10/05 00:20:41;;;;;;;;;;;;;;;12.32;99.54;102276.28;5051468;28;19912;-50
2023/10/05 00:23:09;;;;;;;;;;;;;;;12.33;99.42;102277.13;5051631;28;20384;-49
2023/10/05 00:25:34;;;;;;;;;;;;;;;12.32;99.42;102278.94;5053779;28;19996;-49
2023/10/05 00:28:04;;;;;;;;;;;;;;;12.33;99.54;102285.97;5052033;28;20029;-50
2023/10/05 00:30:31;;;;;;;;;;;;;;;12.33;99.98;102285.13;5052395;28;20431;-50
2023/10/05 00:32:58;;;;;;;;;;;;;;;12.32;99.66;102289.59;5052804;28;19920;-50
2023/10/05 00:35:28;;;;;;;;;;;;;;;12.33;100.00;102293.09;5053109;28;19917;-50
2023/10/05 00:37:57;;;;;;;;;;;;;;;12.32;100.00;102288.72;5052825;28;19912;-50
2023/10/05 00:40:36;;;;;;;;;;;;;;;12.32;99.81;102297.59;5052687;28;19916;-50
2023/10/05 00:43:06;;;;;;;;;;;;;;;12.32;100.00;102294.03;5053074;28;19917;-50
2023/10/05 00:45:33;;;;;;;;;;;;;;;12.31;100.00;102301.19;5051546;28;19997;-49
2023/10/05 00:48:09;;;;;;;;;;;;;;;12.32;100.00;102302.03;5051356;28;19948;-50
2023/10/05 00:50:35;;;;;;;;;;;;;;;12.31;100.00;102297.69;5048448;28;19917;-51
2023/10/05 00:53:01;;;;;;;;;;;;;;;12.30;100.00;102294.13;5048888;28;19913;-52
2023/10/05 00:55:26;;;;;;;;;;;;;;;12.31;100.00;102298.53;5047406;28;20382;-50
2023/10/05 00:57:53;;;;;;;;;;;;;;;12.32;100.00;102302.03;5049882;28;19981;-50
2023/10/05 01:00:28;;;;;;;;;;;;;;;12.32;100.00;102299.38;5049393;28;19923;-50
2023/10/05 01:05:49;;;;;;;;;;;;;;;12.32;99.87;102294.03;5052818;28;19919;-50
2023/10/05 01:08:15;;;;;;;;;;;;;;;12.31;100.00;102311.84;5049064;28;19912;-52
2023/10/05 01:10:43;;;;;;;;;;;;;;;12.30;100.00;102304.78;5052006;28;20343;-53
2023/10/05 01:13:22;;;;;;;;;;;;;;;12.30;100.00;102304.78;5052431;28;19939;-49
2023/10/05 01:15:50;;;;;;;;;;;;;;;12.29;100.00;102302.22;5049360;28;19917;-51
2023/10/05 01:18:15;;;;;;;;;;;;;;;12.30;100.00;102303.94;5052179;28;19970;-50
2023/10/05 01:20:43;;;;;;;;;;;;;;;12.29;100.00;102295.09;5051520;28;19916;-52
2023/10/05 01:23:08;;;;;;;;;;;;;;;12.30;99.85;102298.63;5048343;28;19920;-53
2023/10/05 01:25:36;;;;;;;;;;;;;;;12.29;99.81;102294.22;5052390;28;20279;-50
2023/10/05 01:28:01;;;;;;;;;;;;;;;12.29;99.93;102294.22;5050212;28;20367;-53
2023/10/05 01:30:26;;;;;;;;;;;;;;;12.27;100.00;102294.31;5051287;28;19932;-50
2023/10/05 01:32:53;;;;;;;;;;;;;;;12.27;100.00;102290.81;5051586;28;20271;-52
2023/10/05 01:35:19;;;;;;;;;;;;;;;12.26;100.00;102292.63;5052074;28;19952;-50
2023/10/05 01:37:45;;;;;;;;;;;;;;;12.26;100.00;102295.28;5050654;28;20394;-52
2023/10/05 01:42:47;;;;;;;;;;;;;;;12.26;100.00;102295.28;5048164;28;19967;-50
2023/10/05 01:45:21;;;;;;;;;;;;;;;12.25;99.98;102287.38;5050681;28;20367;-52
2023/10/05 01:47:46;;;;;;;;;;;;;;;12.25;100.00;102282.91;5051165;28;19917;-51
2023/10/05 01:50:18;;;;;;;;;;;;;;;12.25;100.00;102282.91;5051571;28;20001;-50
2023/10/05 01:52:45;;;;;;;;;;;;;;;12.25;100.00;102290.91;5051845;28;21095;-52
2023/10/05 01:55:12;;;;;;;;;;;;;;;12.24;100.00;102286.53;5051730;28;19978;-53
2023/10/05 01:57:37;;;;;;;;;;;;;;;12.24;100.00;102281.22;5050095;28;19920;-50
2023/10/05 02:00:04;;;;;;;;;;;;;;;12.24;100.00;102283.88;5051072;28;20038;-50
2023/10/05 02:02:30;;;;;;;;;;;;;;;12.24;100.00;102281.22;5050975;28;20007;-50
2023/10/05 02:04:55;;;;;;;;;;;;;;;12.25;100.00;102282.91;5050553;28;19916;-49
2023/10/05 02:07:23;;;;;;;;;;;;;;;12.23;100.00;102282.16;5051771;28;19920;-51
2023/10/05 02:09:49;;;;;;;;;;;;;;;12.24;100.00;102281.22;5051594;28;19912;-50
2023/10/05 02:12:14;;;;;;;;;;;;;;;12.22;100.00;102280.41;5051132;28;19924;-52
2023/10/05 02:14:41;;;;;;;;;;;;;;;12.20;100.00;102277.84;5051423;28;19912;-50
2023/10/05 02:17:10;;;;;;;;;;;;;;;12.19;100.00;102277.94;5051289;28;20011;-50
2023/10/05 02:19:37;;;;;;;;;;;;;;;12.18;100.00;102271.75;5051633;28;19948;-53
2023/10/05 02:22:04;;;;;;;;;;;;;;;12.17;100.00;102270.06;5051742;28;19912;-50
2023/10/05 02:24:34;;;;;;;;;;;;;;;12.17;100.00;102275.41;5051307;28;19913;-50
2023/10/05 02:29:26;;;;;;;;;;;;;;;12.15;100.00;102279.09;5051551;28;19912;-50
2023/10/05 02:34:22;;;;;;;;;;;;;;;12.14;100.00;102272.91;5050864;28;19994;-53
2023/10/05 02:36:50;;;;;;;;;;;;;;;12.14;100.00;102269.38;5050322;28;20327;-50
2023/10/05 02:39:15;;;;;;;;;;;;;;;12.13;100.00;102267.69;5049652;28;20362;-51
2023/10/05 02:41:40;;;;;;;;;;;;;;;12.11;100.00;102262.44;5051041;28;19916;-53
2023/10/05 02:44:26;;;;;;;;;;;;;;;12.10;100.00;102258.06;5051234;28;19974;-53
2023/10/05 02:46:51;;;;;;;;;;;;;;;12.08;100.00;102259.97;5055593;28;20367;-50
2023/10/05 02:49:22;;;;;;;;;;;;;;;12.08;100.00;102262.63;5053731;28;19924;-50
2023/10/05 02:51:47;;;;;;;;;;;;;;;12.07;100.00;102254.72;5054392;28;19927;-51
2023/10/05 02:54:13;;;;;;;;;;;;;;;12.03;100.00;102254.06;5053832;28;19913;-50
2023/10/05 02:56:41;;;;;;;;;;;;;;;12.02;100.00;102257.66;5054128;28;19923;-51
2023/10/05 02:59:07;;;;;;;;;;;;;;;12.00;100.00;102254.22;5051642;28;19962;-50
2023/10/05 03:01:33;;;;;;;;;;;;;;;11.98;100.00;102254.31;5053550;28;19913;-52
2023/10/05 03:04:03;;;;;;;;;;;;;;;11.97;100.00;102263.28;5054984;28;19917;-50
2023/10/05 03:06:28;;;;;;;;;;;;;;;11.96;100.00;102261.56;5053829;28;19917;-51
2023/10/05 03:08:56;;;;;;;;;;;;;;;11.96;100.00;102255.38;5054633;28;19920;-49
2023/10/05 03:11:22;;;;;;;;;;;;;;;11.93;100.00;102248.41;5053549;28;20764;-50
2023/10/05 03:13:47;;;;;;;;;;;;;;;11.93;100.00;102248.41;5053363;28;19913;-53
2023/10/05 03:16:16;;;;;;;;;;;;;;;11.92;100.00;102249.34;5054523;28;19913;-50
2023/10/05 03:18:43;;;;;;;;;;;;;;;11.90;100.00;102248.56;5051530;28;19916;-50
2023/10/05 03:21:09;;;;;;;;;;;;;;;11.91;100.00;102252.09;5053765;28;19923;-50
2023/10/05 03:23:35;;;;;;;;;;;;;;;11.89;100.00;102252.19;5054580;28;19916;-52
2023/10/05 03:26:00;;;;;;;;;;;;;;;11.89;100.00;102254.84;5054594;28;19917;-51
2023/10/05 03:28:25;;;;;;;;;;;;;;;11.87;100.00;102254.06;5053870;28;20330;-50
2023/10/05 03:30:53;;;;;;;;;;;;;;;11.86;100.00;102252.38;5054136;28;19995;-53
2023/10/05 03:33:23;;;;;;;;;;;;;;;11.84;100.00;102243.63;5054548;28;19913;-50
2023/10/05 03:35:48;;;;;;;;;;;;;;;11.83;100.00;102249.88;5053655;28;20559;-51
2023/10/05 03:38:19;;;;;;;;;;;;;;;11.81;100.00;102247.31;5054503;28;19913;-53
2023/10/05 03:40:44;;;;;;;;;;;;;;;11.81;100.00;102244.66;5054095;28;19970;-52
2023/10/05 03:43:10;;;;;;;;;;;;;;;11.80;100.00;102244.75;5053138;28;19917;-54
2023/10/05 03:45:38;;;;;;;;;;;;;;;11.80;100.00;102239.41;5054203;28;19920;-49
2023/10/05 03:48:05;;;;;;;;;;;;;;;11.78;100.00;102243.97;5054249;28;19948;-51
2023/10/05 03:50:31;;;;;;;;;;;;;;;11.77;100.00;102253.75;5052799;28;19947;-50
2023/10/05 03:52:57;;;;;;;;;;;;;;;11.75;100.00;102247.66;5053906;28;20373;-52
2023/10/05 03:55:24;;;;;;;;;;;;;;;11.74;100.00;102251.31;5050857;28;19916;-50
2023/10/05 03:57:50;;;;;;;;;;;;;;;11.73;100.00;102256.72;5053818;28;20641;-51
2023/10/05 04:02:43;;;;;;;;;;;;;;;11.71;100.00;102231.97;5051647;28;19923;-51
2023/10/05 04:05:10;;;;;;;;;;;;;;;11.71;100.00;102229.31;5052465;28;20003;-50
2023/10/05 04:07:35;;;;;;;;;;;;;;;11.69;100.00;102231.22;5053911;28;19913;-52
2023/10/05 04:10:02;;;;;;;;;;;;;;;11.67;100.00;102231.28;5053285;28;19977;-52
2023/10/05 04:12:31;;;;;;;;;;;;;;;11.65;100.00;102241.19;5052984;28;19956;-53
2023/10/05 04:14:57;;;;;;;;;;;;;;;11.64;100.00;102242.13;5053590;28;19920;-50
2023/10/05 04:17:22;;;;;;;;;;;;;;;11.62;100.00;102244.03;5051998;28;19913;-52
2023/10/05 04:19:48;;;;;;;;;;;;;;;11.61;100.00;102240.50;5052688;28;20393;-49
2023/10/05 04:22:14;;;;;;;;;;;;;;;11.59;100.00;102247.72;5053553;28;20290;-48
2023/10/05 04:24:41;;;;;;;;;;;;;;;11.58;100.00;102246.00;5053536;28;19908;-49
2023/10/05 04:27:07;;;;;;;;;;;;;;;11.56;100.00;102245.25;5051889;28;19913;-49
2023/10/05 04:29:32;;;;;;;;;;;;;;;11.54;100.00;102247.16;5052470;28;19959;-48
2023/10/05 04:31:58;;;;;;;;;;;;;;;11.53;100.00;102247.22;5053026;28;19913;-49
2023/10/05 04:34:27;;;;;;;;;;;;;;;11.52;100.00;102245.50;5053219;28;19924;-50
2023/10/05 04:36:54;;;;;;;;;;;;;;;11.50;100.00;102245.59;5052134;28;19923;-50
2023/10/05 04:39:26;;;;;;;;;;;;;;;11.48;100.00;102242.19;5052943;28;19955;-51
2023/10/05 04:41:53;;;;;;;;;;;;;;;11.47;100.00;102240.44;5052934;28;20328;-49
2023/10/05 04:44:18;;;;;;;;;;;;;;;11.45;100.00;102239.69;5052343;28;20362;-50
2023/10/05 04:46:47;;;;;;;;;;;;;;;11.46;100.00;102244.91;5052718;28;20231;-49
2023/10/05 04:49:12;;;;;;;;;;;;;;;11.44;100.00;102240.63;5052561;28;20286;-52
2023/10/05 04:51:41;;;;;;;;;;;;;;;11.43;100.00;102245.09;5053272;28;20011;-51
2023/10/05 04:54:10;;;;;;;;;;;;;;;11.44;100.00;102245.94;5048393;28;20331;-50
2023/10/05 05:01:57;;;;;;;;;;;;;;;11.42;100.00;102235.41;5048433;28;19939;-50
2023/10/05 05:07:00;;;;;;;;;;;;;;;11.42;100.00;102239.84;5049813;28;19960;-50
2023/10/05 05:09:29;;;;;;;;;;;;;;;11.40;100.00;102237.28;5052505;28;20404;-50
2023/10/05 05:11:56;;;;;;;;;;;;;;;11.40;100.00;102241.75;5052472;28;19913;-50
2023/10/05 05:14:23;;;;;;;;;;;;;;;11.40;100.00;102247.06;5051896;28;19912;-50
2023/10/05 05:16:49;;;;;;;;;;;;;;;11.40;100.00;102245.25;5052962;28;20000;-49
2023/10/05 05:19:14;;;;;;;;;;;;;;;11.41;100.00;102246.16;5049562;28;19919;-50
2023/10/05 05:21:40;;;;;;;;;;;;;;;11.41;100.00;102254.13;5052505;28;20007;-50
2023/10/05 05:24:05;;;;;;;;;;;;;;;11.41;100.00;102252.31;5052296;28;19966;-49
2023/10/05 05:26:31;;;;;;;;;;;;;;;11.42;100.00;102259.38;5050776;28;20378;-50
2023/10/05 05:28:58;;;;;;;;;;;;;;;11.42;100.00;102247.84;5050444;28;20401;-49
2023/10/05 05:31:24;;;;;;;;;;;;;;;11.42;100.00;102262.03;5048388;28;20488;-50
2023/10/05 05:33:49;;;;;;;;;;;;;;;11.44;100.00;102261.91;5051280;28;19917;-50
2023/10/05 05:36:16;;;;;;;;;;;;;;;11.43;100.00;102252.22;5051170;28;19965;-51
2023/10/05 05:38:41;;;;;;;;;;;;;;;11.44;100.00;102261.91;5051020;28;19917;-50
2023/10/05 05:41:15;;;;;;;;;;;;;;;11.43;100.00;102258.41;5048983;28;19916;-51
2023/10/05 05:43:41;;;;;;;;;;;;;;;11.44;100.00;102257.47;5052193;28;19951;-52
2023/10/05 05:46:11;;;;;;;;;;;;;;;11.45;100.00;102268.94;5047633;28;20386;-52
2023/10/05 05:48:36;;;;;;;;;;;;;;;11.45;100.00;102259.16;5046612;28;20030;-50
2023/10/05 05:51:14;;;;;;;;;;;;;;;11.47;100.00;102267.94;5049169;28;19999;-48
2023/10/05 05:53:40;;;;;;;;;;;;;;;11.49;100.00;102270.50;5048438;28;19923;-51
2023/10/05 05:56:05;;;;;;;;;;;;;;;11.51;100.00;102267.72;5048778;28;19916;-48
2023/10/05 05:58:30;;;;;;;;;;;;;;;11.51;100.00;102268.59;5043351;28;20448;-48
2023/10/05 06:00:57;;;;;;;;;;;;;;;11.53;100.00;102263.19;5039923;28;19920;-49
2023/10/05 06:03:24;;;;;;;;;;;;;;;11.54;100.00;102265.78;5044158;28;19923;-51
2023/10/05 06:05:50;;;;;;;;;;;;;;;11.57;100.00;102265.56;5045654;28;20359;-49
2023/10/05 06:08:16;;;;;;;;;;;;;;;11.59;100.00;102268.16;5041707;28;19943;-50
2023/10/05 06:10:43;;;;;;;;;;;;;;;11.59;100.00;102266.34;5048983;28;19927;-48
2023/10/05 06:13:11;;;;;;;;;;;;;;;11.61;100.00;102271.59;5041545;28;19916;-49
2023/10/05 06:15:36;;;;;;;;;;;;;;;11.62;100.00;102271.50;5045080;28;19999;-49
2023/10/05 06:18:02;;;;;;;;;;;;;;;11.64;100.00;102277.59;5045737;28;19952;-49
2023/10/05 06:20:27;;;;;;;;;;;;;;;11.65;100.00;102281.94;5050099;28;20375;-49
2023/10/05 06:22:53;;;;;;;;;;;;;;;11.67;100.00;102281.88;5054514;28;20019;-48
2023/10/05 06:25:18;;;;;;;;;;;;;;;11.69;100.00;102293.31;5051202;28;19912;-48
2023/10/05 06:27:51;;;;;;;;;;;;;;;11.71;100.00;102293.19;5051452;28;20317;-48
2023/10/05 06:30:16;;;;;;;;;;;;;;;11.73;100.00;102296.63;5049677;28;20209;-49
2023/10/05 06:32:44;;;;;;;;;;;;;;;11.75;100.00;102298.25;5053730;28;20381;-49
2023/10/05 06:35:11;;;;;;;;;;;;;;;11.78;100.00;102305.22;5046289;28;19962;-48
2023/10/05 06:37:39;;;;;;;;;;;;;;;11.80;100.00;102303.31;5054756;28;19987;-48
2023/10/05 06:40:14;;;;;;;;;;;;;;;11.84;100.00;102302.19;5051689;28;19958;-48
2023/10/05 06:42:42;;;;;;;;;;;;;;;11.86;100.00;102310.94;5048865;28;20274;-49
2023/10/05 06:45:11;;;;;;;;;;;;;;;11.89;100.00;102304.56;5052494;28;20367;-49
2023/10/05 06:47:36;;;;;;;;;;;;;;;11.90;100.00;102309.81;5052725;28;19923;-51
2023/10/05 06:50:03;;;;;;;;;;;;;;;11.93;100.00;102309.66;5050971;28;19912;-48
2023/10/05 06:52:28;;;;;;;;;;;;;;;11.95;100.00;102313.09;5051641;28;19913;-48
2023/10/05 06:54:53;;;;;;;;;;;;;;;11.98;100.00;102317.38;5052251;28;19913;-49
2023/10/05 06:57:19;;;;;;;;;;;;;;;12.01;100.00;102325.19;5054599;28;19920;-51
2023/10/05 06:59:44;;;;;;;;;;;;;;;12.05;100.00;102323.19;5052777;28;19970;-49
2023/10/05 07:02:09;;;;;;;;;;;;;;;12.07;100.00;102329.28;5054740;28;19948;-48
2023/10/05 07:04:35;;;;;;;;;;;;;;;12.10;100.00;102324.63;5049165;28;20259;-49
2023/10/05 07:07:00;;;;;;;;;;;;;;;12.13;100.00;102332.44;5052250;28;19908;-48
2023/10/05 07:09:26;;;;;;;;;;;;;;;12.17;100.00;102330.44;5050514;28;19920;-49
2023/10/05 07:11:52;;;;;;;;;;;;;;;12.19;100.00;102339.19;5047452;28;20436;-48
2023/10/05 07:14:18;;;;;;;;;;;;;;;12.21;100.00;102330.19;5052512;28;19913;-50
2023/10/05 07:16:43;;;;;;;;;;;;;;;12.25;100.00;102348.66;5052027;28;20363;-49
2023/10/05 07:19:08;;;;;;;;;;;;;;;12.28;100.00;102351.97;5053565;28;19916;-49
2023/10/05 07:21:34;;;;;;;;;;;;;;;12.32;100.00;102348.22;5049079;28;19970;-48
2023/10/05 07:23:59;;;;;;;;;;;;;;;12.37;100.00;102343.47;5052827;28;20286;-50
2023/10/05 07:26:24;;;;;;;;;;;;;;;12.40;100.00;102340.59;5046891;28;19917;-50
2023/10/05 07:28:50;;;;;;;;;;;;;;;12.47;100.00;102346.41;5049264;28;19917;-49
2023/10/05 07:31:15;;;;;;;;;;;;;;;12.52;100.00;102348.78;5051218;28;19913;-49
2023/10/05 07:33:41;;;;;;;;;;;;;;;12.58;100.00;102361.75;5045454;28;19982;-49
2023/10/05 07:36:06;;;;;;;;;;;;;;;12.62;100.00;102365.06;5046446;28;20139;-49
2023/10/05 07:38:32;;;;;;;;;;;;;;;12.68;100.00;102372.72;5051571;28;19958;-49
2023/10/05 07:40:57;;;;;;;;;;;;;;;12.74;100.00;102378.53;5044500;28;19924;-49
2023/10/05 07:43:23;;;;;;;;;;;;;;;12.78;100.00;102382.72;5051020;28;20287;-49
2023/10/05 07:45:49;;;;;;;;;;;;;;;12.84;100.00;102376.16;5049199;28;19921;-51
2023/10/05 07:48:14;;;;;;;;;;;;;;;12.88;100.00;102371.47;5051238;28;19908;-49
2023/10/05 07:50:39;;;;;;;;;;;;;;;12.93;100.00;102372.91;5054122;28;19968;-48
2023/10/05 07:53:04;;;;;;;;;;;;;;;13.00;100.00;102389.38;5053673;28;19960;-49
2023/10/05 07:55:31;;;;;;;;;;;;;;;13.05;100.00;102386.44;5053348;28;20393;-49
2023/10/05 07:57:56;;;;;;;;;;;;;;;13.13;100.00;102384.16;5052473;28;20000;-49
2023/10/05 08:00:21;;;;;;;;;;;;;;;13.21;100.00;102392.53;5053753;28;20354;-49
2023/10/05 08:02:46;;;;;;;;;;;;;;;13.31;100.00;102390.13;5050700;28;19924;-50
2023/10/05 08:05:12;;;;;;;;;;;;;;;13.42;100.00;102384.13;5053787;28;19912;-48
2023/10/05 08:07:37;;;;;;;;;;;;;;;13.53;100.00;102386.13;5052995;28;19925;-50
2023/10/05 08:10:03;;;;;;;;;;;;;;;13.60;100.00;102390.09;5051518;28;20005;-49
2023/10/05 08:12:28;;;;;;;;;;;;;;;13.68;100.00;102393.97;5053392;28;19943;-48
2023/10/05 08:14:54;;;;;;;;;;;;;;;13.78;100.00;102388.06;5053212;28;20047;-48
2023/10/05 08:17:20;;;;;;;;;;;;;;;13.86;100.00;102393.75;5050652;28;19923;-48
2023/10/05 08:19:45;;;;;;;;;;;;;;;13.95;100.00;102400.28;5053331;28;19927;-49
2023/10/05 08:22:11;;;;;;;;;;;;;;;14.02;100.00;102402.47;5049387;28;19958;-48
2023/10/05 08:24:37;;;;;;;;;;;;;;;14.12;100.00;102407.19;5048002;28;19920;-49
2023/10/05 08:27:02;;;;;;;;;;;;;;;14.19;100.00;102404.00;5047907;28;20256;-48
2023/10/05 08:29:28;;;;;;;;;;;;;;;14.27;100.00;102405.28;5052064;28;19923;-48
2023/10/05 08:31:53;;;;;;;;;;;;;;;14.34;100.00;102406.59;5047202;28;20007;-48
2023/10/05 08:34:21;;;;;;;;;;;;;;;14.39;100.00;102405.34;5048344;28;19919;-48
2023/10/05 08:36:49;;;;;;;;;;;;;;;14.47;100.00;102410.16;5046536;28;19916;-48
2023/10/05 08:39:14;;;;;;;;;;;;;;;14.53;100.00;102411.56;5044461;28;20390;-48
2023/10/05 08:41:41;;;;;;;;;;;;;;;14.58;100.00;102417.44;5048966;28;19913;-48
2023/10/05 08:44:10;;;;;;;;;;;;;;;14.64;100.00;102422.41;5045801;28;19923;-49
2023/10/05 08:46:41;;;;;;;;;;;;;;;14.69;100.00;102419.38;5047639;28;20248;-48
2023/10/05 08:49:07;;;;;;;;;;;;;;;14.74;100.00;102422.63;5047317;28;19920;-48
2023/10/05 08:51:35;;;;;;;;;;;;;;;14.79;99.66;102416.00;5046505;28;19920;-48
2023/10/05 08:54:02;;;;;;;;;;;;;;;14.85;99.39;102424.53;5052196;28;20383;-49
2023/10/05 08:56:30;;;;;;;;;;;;;;;14.89;99.11;102429.59;5048976;28;20464;-49
2023/10/05 08:58:59;;;;;;;;;;;;;;;14.94;99.27;102426.59;5052206;28;19936;-50
2023/10/05 09:01:27;;;;;;;;;;;;;;;14.97;99.04;102429.03;5050747;28;20007;-48
2023/10/05 09:04:01;;;;;;;;;;;;;;;15.07;98.93;102429.25;5049050;28;20003;-49
2023/10/05 09:06:27;;;;;;;;;;;;;;;15.13;98.33;102439.53;5053432;28;19923;-48
2023/10/05 09:11:47;;;;;;;;;;;;;;;15.26;98.03;102451.06;5042986;28;20288;-48
2023/10/05 09:14:18;;;;;;;;;;;;;;;15.31;97.24;102464.13;5051667;28;19917;-49
2023/10/05 09:16:47;;;;;;;;;;;;;;;15.33;97.44;102465.72;5051015;28;19944;-49
2023/10/05 09:19:15;;;;;;;;;;;;;;;15.36;97.19;102473.53;5050270;28;19912;-50
2023/10/05 09:21:44;;;;;;;;;;;;;;;15.43;96.99;102473.97;5050677;28;19959;-48
2023/10/05 09:24:29;;;;;;;;;;;;;;;15.46;96.92;102472.91;5048091;28;19967;-48
2023/10/05 09:27:09;;;;;;;;;;;;;;;15.51;96.82;102478.78;5050321;28;19921;-48
2023/10/05 09:29:36;;;;;;;;;;;;;;;15.56;96.92;102478.47;5047883;28;20333;-48
2023/10/05 09:32:08;;;;;;;;;;;;;;;15.62;96.85;102473.53;5050167;28;19912;-47
2023/10/05 09:34:36;;;;;;;;;;;;;;;15.69;96.33;102471.25;5048905;28;19913;-48
2023/10/05 09:37:05;;;;;;;;;;;;;;;15.75;95.44;102480.66;5051929;28;19913;-48
2023/10/05 09:39:31;;;;;;;;;;;;;;;15.79;95.61;102482.19;5051433;28;19924;-49
2023/10/05 09:42:01;;;;;;;;;;;;;;;15.82;95.56;102473.91;5048273;28;19913;-48
2023/10/05 09:44:28;;;;;;;;;;;;;;;15.87;95.47;102469.06;5051183;28;19923;-50
2023/10/05 09:46:54;;;;;;;;;;;;;;;15.91;94.99;102467.88;5052426;28;19919;-48
2023/10/05 09:49:20;;;;;;;;;;;;;;;15.94;94.34;102477.50;5052088;28;19913;-49
2023/10/05 09:51:48;;;;;;;;;;;;;;;15.95;93.96;102479.22;5051923;28;19912;-48
2023/10/05 09:54:14;;;;;;;;;;;;;;;15.94;94.05;102483.75;5050692;28;20369;-48
2023/10/05 09:56:41;;;;;;;;;;;;;;;15.98;94.51;102485.22;5052030;28;19920;-49
2023/10/05 09:59:15;;;;;;;;;;;;;;;15.96;92.75;102479.13;5051621;28;20289;-50
2023/10/05 10:01:42;;;;;;;;;;;;;;;15.96;93.24;102481.81;5049921;28;19909;-48
2023/10/05 10:04:08;;;;;;;;;;;;;;;15.96;93.81;102484.47;5050278;28;20325;-49
2023/10/05 10:06:35;;;;;;;;;;;;;;;15.99;92.85;102480.72;5051165;28;19908;-49
2023/10/05 10:09:10;;;;;;;;;;;;;;;16.01;93.49;102482.31;5051626;28;19942;-48
2023/10/05 10:11:36;;;;;;;;;;;;;;;16.03;92.47;102480.38;5051617;28;20378;-48
2023/10/05 10:14:05;;;;;;;;;;;;;;;16.05;92.19;102482.94;5045732;28;19928;-48
2023/10/05 10:16:34;;;;;;;;;;;;;;;16.05;92.10;102481.13;5041438;28;20426;-48
2023/10/05 10:19:18;;;;;;;;;;;;;;;16.05;92.03;102481.13;5042655;28;19923;-49
2023/10/05 10:21:53;;;;;;;;;;;;;;;16.08;92.42;102483.56;5044444;28;19917;-47
2023/10/05 10:24:18;;;;;;;;;;;;;;;16.14;92.75;102482.28;5045559;28;19927;-49
2023/10/05 10:26:45;;;;;;;;;;;;;;;16.20;92.69;102467.53;5044429;28;19916;-48
2023/10/05 10:29:11;;;;;;;;;;;;;;;16.26;92.74;102475.13;5042661;28;19986;-48
2023/10/05 10:31:42;;;;;;;;;;;;;;;16.27;91.91;102475.03;5047301;28;19921;-48
2023/10/05 10:34:19;;;;;;;;;;;;;;;16.31;91.62;102467.59;5045951;28;19917;-48
2023/10/05 10:36:51;;;;;;;;;;;;;;;16.37;91.69;102472.50;5048637;28;19960;-48
2023/10/05 10:39:38;;;;;;;;;;;;;;;16.43;91.23;102474.69;5047625;28;19909;-50
2023/10/05 10:42:07;;;;;;;;;;;;;;;16.50;91.46;102477.78;5047387;28;19955;-51
2023/10/05 10:44:57;;;;;;;;;;;;;;;16.58;91.91;102478.06;5047659;28;19944;-47
2023/10/05 10:47:23;;;;;;;;;;;;;;;16.65;90.09;102473.06;5043568;28;19975;-48
2023/10/05 10:49:59;;;;;;;;;;;;;;;16.75;91.64;102486.63;5046373;28;19917;-48
2023/10/05 10:52:25;;;;;;;;;;;;;;;16.87;91.21;102476.81;5046806;28;19927;-48
2023/10/05 10:54:53;;;;;;;;;;;;;;;16.98;90.60;102466.09;5047172;28;20363;-47
2023/10/05 10:57:21;;;;;;;;;;;;;;;17.10;89.99;102465.16;5046226;28;19917;-47
2023/10/05 10:59:47;;;;;;;;;;;;;;;17.23;90.30;102464.19;5044628;28;19963;-48
2023/10/05 11:02:19;;;;;;;;;;;;;;;17.35;89.64;102471.25;5044910;28;19920;-48
2023/10/05 11:04:47;;;;;;;;;;;;;;;17.50;89.84;102459.31;5047892;28;19948;-47
2023/10/05 11:07:13;;;;;;;;;;;;;;;17.65;86.84;102465.28;5041323;28;19956;-50
2023/10/05 11:09:54;;;;;;;;;;;;;;;17.75;86.60;102465.34;5047788;28;20035;-48
2023/10/05 11:12:22;;;;;;;;;;;;;;;17.86;86.83;102470.72;5051163;28;19924;-48
2023/10/05 11:14:47;;;;;;;;;;;;;;;17.97;85.79;102467.19;5048580;28;19952;-47
2023/10/05 11:17:30;;;;;;;;;;;;;;;18.09;84.83;102465.31;5048404;28;20413;-48
2023/10/05 11:19:55;;;;;;;;;;;;;;;18.23;85.67;102467.69;5046344;28;19925;-48
2023/10/05 11:22:24;;;;;;;;;;;;;;;18.33;84.13;102469.63;5042641;28;20329;-47
2023/10/05 11:25:14;;;;;;;;;;;;;;;18.44;84.63;102469.56;5052826;28;19979;-48
2023/10/05 11:27:44;;;;;;;;;;;;;;;18.60;85.01;102461.03;5049915;28;19924;-48
2023/10/05 11:30:16;;;;;;;;;;;;;;;18.74;82.56;102459.88;5054346;28;19920;-47
2023/10/05 11:32:42;;;;;;;;;;;;;;;18.85;81.21;102467.88;5053603;28;19978;-48
2023/10/05 11:35:13;;;;;;;;;;;;;;;18.97;83.76;102464.16;5054166;28;19912;-48
2023/10/05 11:37:38;;;;;;;;;;;;;;;19.08;79.92;102462.38;5053921;28;19970;-48
2023/10/05 11:40:05;;;;;;;;;;;;;;;19.16;81.17;102451.78;5054046;28;19912;-47
2023/10/05 11:42:35;;;;;;;;;;;;;;;19.23;81.32;102456.50;5052826;28;19921;-47
2023/10/05 11:45:04;;;;;;;;;;;;;;;19.34;79.43;102460.91;5048775;28;19920;-47
2023/10/05 11:47:44;;;;;;;;;;;;;;;19.41;82.43;102445.91;5050565;28;19940;-48
2023/10/05 11:50:22;;;;;;;;;;;;;;;19.56;79.34;102457.16;5049324;28;19966;-47
2023/10/05 11:52:48;;;;;;;;;;;;;;;19.65;81.39;102463.59;5053677;28;19917;-47
2023/10/05 11:55:14;;;;;;;;;;;;;;;19.74;81.78;102461.91;5053137;28;19923;-47
2023/10/05 11:57:40;;;;;;;;;;;;;;;19.66;77.91;102462.59;5054644;28;19920;-48
2023/10/05 12:00:06;;;;;;;;;;;;;;;19.57;77.32;102466.13;5054130;28;19912;-46
2023/10/05 12:02:33;;;;;;;;;;;;;;;19.52;80.06;102457.59;5054597;28;20398;-48
2023/10/05 12:04:58;;;;;;;;;;;;;;;19.48;80.25;102458.84;5053516;28;20298;-48
2023/10/05 12:07:25;;;;;;;;;;;;;;;19.49;78.72;102457.88;5053138;28;19912;-49
2023/10/05 12:09:50;;;;;;;;;;;;;;;19.46;76.69;102461.66;5053339;28;19920;-51
2023/10/05 12:12:18;;;;;;;;;;;;;;;19.47;77.44;102455.31;5052669;28;19917;-48
2023/10/05 12:14:44;;;;;;;;;;;;;;;19.47;78.57;102460.69;5052148;28;19916;-48
2023/10/05 12:17:10;;;;;;;;;;;;;;;19.42;76.45;102462.94;5051489;28;19920;-48
2023/10/05 12:19:35;;;;;;;;;;;;;;;19.36;78.44;102467.03;5050556;28;19924;-48
2023/10/05 12:22:01;;;;;;;;;;;;;;;19.29;76.97;102460.47;5050609;28;19913;-48
2023/10/05 12:24:27;;;;;;;;;;;;;;;19.26;77.27;102459.91;5051363;28;20442;-47
2023/10/05 12:26:52;;;;;;;;;;;;;;;19.24;78.35;102457.34;5054042;28;20355;-47
2023/10/05 12:29:17;;;;;;;;;;;;;;;19.21;78.77;102460.31;5052645;28;19958;-47
2023/10/05 12:31:44;;;;;;;;;;;;;;;19.16;76.38;102451.78;5050994;28;19920;-49
2023/10/05 12:34:14;;;;;;;;;;;;;;;19.12;77.58;102453.00;5044471;28;19913;-47
2023/10/05 12:36:40;;;;;;;;;;;;;;;19.10;78.80;102455.00;5049194;28;19919;-47
2023/10/05 12:39:10;;;;;;;;;;;;;;;19.10;78.39;102458.56;5052677;28;20007;-48
2023/10/05 12:41:40;;;;;;;;;;;;;;;19.10;75.58;102455.00;5051929;28;20007;-48
2023/10/05 12:44:09;;;;;;;;;;;;;;;19.06;76.96;102454.41;5052887;28;19986;-46
2023/10/05 12:46:39;;;;;;;;;;;;;;;18.99;78.32;102455.94;5051503;28;19938;-47
2023/10/05 12:49:07;;;;;;;;;;;;;;;18.94;76.85;102453.66;5047898;28;19909;-47
2023/10/05 12:51:34;;;;;;;;;;;;;;;18.91;76.08;102451.22;5050531;28;19916;-48
2023/10/05 12:53:59;;;;;;;;;;;;;;;18.90;79.76;102459.44;5049274;28;20011;-47
2023/10/05 12:56:25;;;;;;;;;;;;;;;18.87;78.59;102452.47;5050553;28;20039;-48